Itacaja, Brazil
Current Conditions -  °F | °C
As of 4:00 PM on Sunday 28 Dec 2014 (Local Time) from SBPJ Reporting Station
Scattered Clouds Scattered Clouds  
Wind Chill: 93°   Ceiling: Unl
Heat Index: 95°   Visibility: 6mi
Dew Point: 64°   Wind: 8mph
Humidity: 38%   Direction: 270°W
Pressure: 29.8"   Gusts: NA
Location:  8.39°S, 47.77°W
Report Text: SBPJ 281900Z 27007KT 9999 SCT025 34/18 Q1009
Loading
Personal Weather Stations






























Interactive Weather Map New forecast layout! Learn more

10-Day Weather Forecast

Advertisements
Track Severe Weather on mobile